Aviation Digital Data Service (ADDS)

Output produced by METARs form (0817 UTC 30 October 2020)
found at http://www.aviationweather.gov/metar/data/
 
Forecast for: UTDL (KHUDZHAND , TJ)
Text: TAF UTDL 300300Z 3004/3016 08008MPS 9999 NSC
Forecast period: 0400 to 1600 UTC 30 October 2020
Forecast type: FROM: standard forecast or significant change
Winds: from the E (80 degrees) at 18 MPH (16 knots; 8.2 m/s)
Visibility: 6 or more miles (10+ km)
Ceiling: unknown
Clouds: missing
Weather: no significant weather forecast for this period
Text: TEMPO 3004/3010 07013MPS
Forecast period: 0400 to 1000 UTC 30 October 2020
Forecast type: TEMPORARY: The following changes expected for less than half the time period
Winds: from the ENE (70 degrees) at 29 MPH (25 knots; 12.9 m/s)
Visibility: missing
Ceiling: unknown
Clouds: missing
Weather: no significant weather forecast for this period